Time;durP1;ratioP1;P1;durP2;ratioP2;P2;SDS_P1;SDS_P2;PMS_P1;PMS_P2;Temp;Humidity;BMP_temperature;BMP_pressure;BME280_temperature;BME280_humidity;BME280_pressure;Samples;Min_cycle;Max_cycle;Signal;HPM_P1;HPM_P2
2020/12/12 00:00:15;;;;;;;18.10;14.10;;;4.60;99.90;;;;;;5027314;28;20451;-69
2020/12/12 00:02:41;;;;;;;17.63;13.13;;;4.60;99.90;;;;;;5028792;28;20552;-69
2020/12/12 00:05:08;;;;;;;16.50;14.80;;;4.60;99.90;;;;;;5028516;28;21084;-69
2020/12/12 00:07:34;;;;;;;17.57;14.87;;;4.60;99.90;;;;;;5027581;28;20867;-68
2020/12/12 00:10:02;;;;;;;18.20;14.00;;;4.60;99.90;;;;;;5026472;28;20445;-68
2020/12/12 00:12:29;;;;;;;20.50;15.27;;;4.70;99.90;;;;;;5027067;28;20564;-68
2020/12/12 00:14:55;;;;;;;19.00;13.73;;;4.70;99.90;;;;;;5027771;28;20523;-69
2020/12/12 00:17:21;;;;;;;18.00;14.73;;;4.70;99.90;;;;;;5026760;28;20482;-68
2020/12/12 00:19:48;;;;;;;19.67;14.57;;;4.70;99.90;;;;;;5025909;28;20514;-68
2020/12/12 00:22:14;;;;;;;21.40;15.90;;;4.60;99.90;;;;;;5025872;28;20991;-69
2020/12/12 00:24:41;;;;;;;19.23;14.00;;;4.70;99.90;;;;;;5026035;28;20544;-69
2020/12/12 00:27:08;;;;;;;17.87;13.00;;;4.70;99.90;;;;;;5026628;28;20441;-68
2020/12/12 00:29:34;;;;;;;17.00;13.10;;;4.60;99.90;;;;;;5025842;28;20536;-69
2020/12/12 00:32:01;;;;;;;18.50;13.37;;;4.70;99.90;;;;;;5025661;28;20465;-68
2020/12/12 00:34:28;;;;;;;16.53;12.37;;;4.70;99.90;;;;;;5026260;28;20534;-68
2020/12/12 00:36:55;;;;;;;16.50;11.43;;;4.70;99.90;;;;;;5030004;28;21008;-69
2020/12/12 00:39:22;;;;;;;15.10;11.47;;;4.80;99.90;;;;;;5029976;28;20537;-69
2020/12/12 00:41:50;;;;;;;17.67;11.90;;;4.80;99.90;;;;;;5027951;28;20484;-69
2020/12/12 00:44:17;;;;;;;17.97;11.63;;;4.80;99.90;;;;;;5029426;28;20447;-68
2020/12/12 00:46:44;;;;;;;17.30;13.17;;;4.70;99.90;;;;;;5029186;28;20455;-68
2020/12/12 00:49:12;;;;;;;15.93;12.60;;;4.80;99.90;;;;;;5029949;28;20449;-69
2020/12/12 00:51:38;;;;;;;18.50;13.00;;;4.80;99.90;;;;;;5028780;28;20529;-69
2020/12/12 00:54:05;;;;;;;18.23;12.60;;;4.80;99.90;;;;;;5030147;28;20451;-68
2020/12/12 00:56:32;;;;;;;16.80;12.83;;;4.80;99.90;;;;;;5029494;28;20532;-69
2020/12/12 00:58:58;;;;;;;17.47;12.30;;;4.80;99.90;;;;;;5029364;28;20457;-69
2020/12/12 01:01:25;;;;;;;20.60;13.20;;;4.80;99.90;;;;;;5027766;28;20506;-69
2020/12/12 01:03:52;;;;;;;15.00;12.07;;;4.80;99.90;;;;;;5028603;28;20460;-69
2020/12/12 01:06:19;;;;;;;19.13;12.57;;;4.90;99.90;;;;;;5029798;28;20543;-69
2020/12/12 01:08:47;;;;;;;18.80;12.70;;;4.90;99.90;;;;;;5029249;28;20451;-68
2020/12/12 01:11:15;;;;;;;17.97;12.33;;;4.80;99.90;;;;;;5028759;28;20452;-68
2020/12/12 01:13:41;;;;;;;22.27;13.73;;;4.80;99.90;;;;;;5028927;28;20449;-69
2020/12/12 01:16:09;;;;;;;20.50;13.37;;;4.70;99.90;;;;;;5008370;28;611342;-69
2020/12/12 01:18:37;;;;;;;16.30;12.30;;;4.80;99.90;;;;;;5030163;28;20209;-68
2020/12/12 01:21:03;;;;;;;18.77;13.17;;;4.80;99.90;;;;;;5030107;28;21017;-68
2020/12/12 01:23:30;;;;;;;21.13;13.83;;;4.80;99.90;;;;;;5030395;28;20563;-68
2020/12/12 01:25:56;;;;;;;18.33;12.63;;;4.80;99.90;;;;;;5030665;28;20885;-68
2020/12/12 01:28:23;;;;;;;18.37;13.33;;;4.70;99.90;;;;;;5030503;28;20526;-68
2020/12/12 01:30:50;;;;;;;18.70;11.97;;;4.80;99.90;;;;;;5029733;28;20437;-68
2020/12/12 01:33:16;;;;;;;20.23;12.17;;;4.80;99.90;;;;;;5030345;28;21138;-68
2020/12/12 01:35:43;;;;;;;18.80;13.20;;;4.80;99.90;;;;;;5030181;28;20532;-68
2020/12/12 01:38:10;;;;;;;17.87;12.90;;;4.80;99.90;;;;;;5030458;28;20440;-68
2020/12/12 01:40:37;;;;;;;18.80;12.83;;;4.80;99.90;;;;;;5028951;28;21296;-68
2020/12/12 01:43:03;;;;;;;19.57;11.27;;;4.80;99.90;;;;;;5030023;28;21060;-68
2020/12/12 01:45:30;;;;;;;17.20;12.20;;;4.80;99.90;;;;;;5029390;28;20825;-67
2020/12/12 01:47:58;;;;;;;15.40;12.40;;;4.80;99.90;;;;;;5029963;28;20444;-68
2020/12/12 01:50:25;;;;;;;17.70;10.80;;;4.80;99.90;;;;;;5029392;28;20522;-67
2020/12/12 01:52:52;;;;;;;16.07;11.90;;;4.80;99.90;;;;;;5029598;28;20501;-68
2020/12/12 01:55:20;;;;;;;16.63;12.60;;;4.80;99.90;;;;;;5029823;28;20948;-67
2020/12/12 01:57:48;;;;;;;15.40;11.80;;;4.80;99.90;;;;;;5029847;28;20446;-68
2020/12/12 02:00:15;;;;;;;18.33;12.57;;;4.80;99.90;;;;;;5029375;28;20456;-68
2020/12/12 02:02:46;;;;;;;16.70;12.37;;;4.70;99.90;;;;;;5029343;28;20865;-68
2020/12/12 02:05:38;;;;;;;15.90;11.20;;;4.70;99.90;;;;;;5030189;28;20963;-67
2020/12/12 02:08:08;;;;;;;15.13;12.30;;;4.70;99.90;;;;;;5030126;28;20503;-67
2020/12/12 02:10:35;;;;;;;15.90;12.40;;;4.70;99.90;;;;;;5029096;28;20459;-68
2020/12/12 02:13:03;;;;;;;12.90;11.00;;;4.70;99.90;;;;;;5030567;28;21023;-69
2020/12/12 02:15:29;;;;;;;16.90;12.33;;;4.70;99.90;;;;;;5029436;28;20451;-67
2020/12/12 02:17:55;;;;;;;15.87;12.50;;;4.70;99.90;;;;;;5029687;28;20456;-68
2020/12/12 02:20:22;;;;;;;15.77;11.53;;;4.70;99.90;;;;;;5028995;28;20456;-68
2020/12/12 02:22:49;;;;;;;19.50;11.93;;;4.70;99.90;;;;;;5029630;28;20548;-68
2020/12/12 02:25:16;;;;;;;18.77;13.20;;;4.80;99.90;;;;;;5029728;28;20476;-68
2020/12/12 02:27:42;;;;;;;16.77;12.00;;;4.80;99.90;;;;;;5029240;28;20437;-68
2020/12/12 02:30:09;;;;;;;12.83;10.93;;;4.80;99.90;;;;;;5028784;28;20536;-67
2020/12/12 02:32:35;;;;;;;20.80;14.10;;;4.80;99.90;;;;;;5028831;28;20467;-68
2020/12/12 02:35:04;;;;;;;16.77;12.40;;;4.80;99.90;;;;;;5029157;28;20552;-68
2020/12/12 02:37:30;;;;;;;16.43;13.17;;;4.80;99.90;;;;;;5028412;28;20455;-68
2020/12/12 02:39:57;;;;;;;17.60;12.20;;;4.70;99.90;;;;;;5027556;28;20523;-68
2020/12/12 02:42:23;;;;;;;15.60;12.20;;;4.70;99.90;;;;;;5028409;28;20869;-68
2020/12/12 02:44:53;;;;;;;20.00;12.50;;;4.60;99.90;;;;;;5028924;28;21227;-68
2020/12/12 02:47:20;;;;;;;19.03;13.17;;;4.70;99.90;;;;;;5029173;28;20924;-68
2020/12/12 02:50:02;;;;;;;18.03;11.73;;;4.70;99.90;;;;;;5028359;28;20468;-68
2020/12/12 02:52:28;;;;;;;17.57;13.17;;;4.60;99.90;;;;;;5028237;28;20556;-68
2020/12/12 02:54:54;;;;;;;20.13;14.47;;;4.60;99.90;;;;;;5028887;28;21224;-68
2020/12/12 02:57:22;;;;;;;18.13;13.97;;;4.70;99.90;;;;;;5027841;28;20548;-68
2020/12/12 02:59:48;;;;;;;22.50;14.13;;;4.70;99.90;;;;;;5028139;28;20444;-68
2020/12/12 03:02:14;;;;;;;21.33;14.70;;;4.60;99.90;;;;;;5027594;28;20520;-68
2020/12/12 03:04:41;;;;;;;19.37;14.13;;;4.60;99.90;;;;;;5028101;28;20995;-68
2020/12/12 03:07:07;;;;;;;21.30;14.47;;;4.60;99.90;;;;;;5028654;28;21118;-68
2020/12/12 03:09:33;;;;;;;20.70;14.50;;;4.60;99.90;;;;;;5028231;28;20956;-68
2020/12/12 03:12:01;;;;;;;18.97;12.93;;;4.50;99.90;;;;;;5027736;28;20475;-68
2020/12/12 03:14:28;;;;;;;21.70;14.03;;;4.50;99.90;;;;;;5028162;28;20475;-67
2020/12/12 03:16:55;;;;;;;24.00;14.70;;;4.50;99.90;;;;;;5028583;28;20448;-67
2020/12/12 03:19:21;;;;;;;22.60;14.70;;;4.40;99.90;;;;;;5020273;28;20882;-69
2020/12/12 03:21:47;;;;;;;21.67;15.20;;;4.40;99.90;;;;;;5008742;28;20486;-68
2020/12/12 03:24:14;;;;;;;26.70;14.70;;;4.40;99.90;;;;;;5009546;28;20528;-70
2020/12/12 03:26:40;;;;;;;17.07;13.47;;;4.40;99.90;;;;;;5009444;28;20972;-69
2020/12/12 03:29:06;;;;;;;21.40;14.17;;;4.50;99.90;;;;;;5009437;28;20448;-69
2020/12/12 03:31:34;;;;;;;20.03;15.40;;;4.50;99.90;;;;;;5009094;28;20895;-69
2020/12/12 03:34:00;;;;;;;22.37;15.47;;;4.50;99.90;;;;;;5009381;28;20986;-70
2020/12/12 03:36:26;;;;;;;23.90;16.80;;;4.50;99.90;;;;;;5009538;28;20456;-69
2020/12/12 03:38:53;;;;;;;22.00;14.60;;;4.40;99.90;;;;;;5009325;28;20445;-69
2020/12/12 03:41:19;;;;;;;21.13;13.97;;;4.40;99.90;;;;;;5008640;28;20484;-69
2020/12/12 03:43:46;;;;;;;23.93;17.30;;;4.30;99.90;;;;;;5009008;28;20472;-70
2020/12/12 03:46:12;;;;;;;23.83;15.10;;;4.40;99.90;;;;;;5009397;28;20456;-69
2020/12/12 03:48:41;;;;;;;22.23;14.93;;;4.40;99.90;;;;;;5008676;28;20830;-70
2020/12/12 03:51:08;;;;;;;22.30;14.27;;;4.40;99.90;;;;;;5007628;28;20442;-70
2020/12/12 03:53:35;;;;;;;21.80;15.00;;;4.30;99.90;;;;;;5009144;28;20473;-69
2020/12/12 03:56:01;;;;;;;21.77;15.60;;;4.30;99.90;;;;;;5010228;28;20477;-70
2020/12/12 03:58:27;;;;;;;22.53;15.00;;;4.30;99.90;;;;;;5013676;28;20486;-70
2020/12/12 04:00:54;;;;;;;23.17;15.80;;;4.20;99.90;;;;;;5014977;28;20513;-70
2020/12/12 04:03:20;;;;;;;20.40;15.33;;;4.20;99.90;;;;;;5010449;28;20469;-69
2020/12/12 04:05:48;;;;;;;22.20;16.17;;;4.20;99.90;;;;;;5009297;28;20452;-69
2020/12/12 04:08:15;;;;;;;21.97;15.90;;;4.20;99.90;;;;;;5008817;28;20446;-69
2020/12/12 04:10:41;;;;;;;21.63;15.07;;;4.20;99.90;;;;;;5009508;28;20533;-71
2020/12/12 04:13:08;;;;;;;20.77;14.20;;;4.30;99.90;;;;;;5027888;28;20532;-69
2020/12/12 04:15:34;;;;;;;21.47;15.00;;;4.30;99.90;;;;;;5027669;28;20793;-70
2020/12/12 04:18:01;;;;;;;21.50;14.57;;;4.30;99.90;;;;;;5027839;28;20487;-70
2020/12/12 04:20:27;;;;;;;22.73;15.03;;;4.30;99.90;;;;;;5029514;28;20516;-69
2020/12/12 04:22:54;;;;;;;20.57;15.90;;;4.30;99.90;;;;;;5029702;28;20484;-70
2020/12/12 04:25:21;;;;;;;24.47;15.40;;;4.30;99.90;;;;;;5028250;28;20443;-70
2020/12/12 04:27:47;;;;;;;21.07;13.77;;;4.30;99.90;;;;;;5028351;28;21000;-69
2020/12/12 04:30:14;;;;;;;19.47;14.30;;;4.30;99.90;;;;;;5027872;28;20440;-72
2020/12/12 04:32:40;;;;;;;20.20;13.30;;;4.40;99.90;;;;;;5028240;28;20461;-69
2020/12/12 04:35:07;;;;;;;20.30;14.40;;;4.40;99.90;;;;;;5028491;28;20532;-70
2020/12/12 04:37:33;;;;;;;22.17;16.27;;;4.40;99.90;;;;;;5028146;28;20445;-69
2020/12/12 04:40:02;;;;;;;21.90;14.93;;;4.40;99.90;;;;;;5027813;28;20475;-69
2020/12/12 04:42:31;;;;;;;23.73;15.37;;;4.40;99.90;;;;;;5027956;28;20489;-68
2020/12/12 04:44:58;;;;;;;21.93;15.60;;;4.30;99.90;;;;;;5028358;28;21155;-70
2020/12/12 04:47:25;;;;;;;22.17;16.13;;;4.30;99.90;;;;;;5028415;28;20443;-69
2020/12/12 04:49:51;;;;;;;22.80;15.40;;;4.30;99.90;;;;;;5028338;28;20517;-69
2020/12/12 04:52:20;;;;;;;19.53;13.07;;;4.40;99.90;;;;;;5027529;28;20461;-69
2020/12/12 04:54:47;;;;;;;21.37;14.60;;;4.30;99.90;;;;;;5028127;28;20450;-70
2020/12/12 04:57:15;;;;;;;21.00;14.47;;;4.40;99.90;;;;;;5028460;28;20539;-69
2020/12/12 04:59:43;;;;;;;21.60;14.53;;;4.40;99.90;;;;;;5028520;28;20437;-69
2020/12/12 05:02:12;;;;;;;19.57;13.90;;;4.50;99.90;;;;;;5025885;28;20476;-70
2020/12/12 05:04:39;;;;;;;19.57;14.30;;;4.50;99.90;;;;;;5027985;28;20429;-70
2020/12/12 05:07:05;;;;;;;19.70;15.20;;;4.50;99.90;;;;;;5027951;28;20834;-70
2020/12/12 05:09:32;;;;;;;22.10;14.03;;;4.50;99.90;;;;;;5027844;28;20532;-70
2020/12/12 05:11:58;;;;;;;19.07;12.97;;;4.50;99.90;;;;;;5027529;28;20467;-70
2020/12/12 05:14:26;;;;;;;18.80;13.50;;;4.50;99.90;;;;;;5028016;28;20507;-69
2020/12/12 05:16:54;;;;;;;18.60;13.50;;;4.60;99.90;;;;;;5027925;28;20531;-69
2020/12/12 05:19:21;;;;;;;19.30;13.67;;;4.60;99.90;;;;;;5027953;28;20975;-69
2020/12/12 05:21:48;;;;;;;20.63;12.93;;;4.60;99.90;;;;;;5029388;28;20560;-69
2020/12/12 05:24:15;;;;;;;18.00;13.50;;;4.70;99.90;;;;;;5031586;28;20436;-69
2020/12/12 05:26:42;;;;;;;19.30;12.63;;;4.70;99.90;;;;;;5031553;28;20451;-69
2020/12/12 05:29:09;;;;;;;15.43;11.57;;;4.70;99.90;;;;;;5031502;28;20540;-70
2020/12/12 05:31:38;;;;;;;14.83;11.37;;;4.70;99.90;;;;;;5031007;28;20813;-69
2020/12/12 05:34:15;;;;;;;17.07;13.47;;;4.80;99.90;;;;;;5031395;28;20443;-68
2020/12/12 05:36:43;;;;;;;19.20;13.70;;;4.80;99.90;;;;;;5031183;28;20547;-68
2020/12/12 05:39:11;;;;;;;14.83;11.73;;;4.70;99.90;;;;;;5031546;28;20447;-70
2020/12/12 05:41:39;;;;;;;15.60;11.90;;;4.70;99.90;;;;;;5030682;28;20487;-69
2020/12/12 05:44:06;;;;;;;15.87;12.10;;;4.80;99.90;;;;;;5031081;28;20451;-69
2020/12/12 05:46:33;;;;;;;16.30;11.90;;;4.80;99.90;;;;;;5022475;28;20453;-70
2020/12/12 05:49:01;;;;;;;14.40;11.60;;;4.80;99.90;;;;;;5030875;28;20523;-69
2020/12/12 05:51:29;;;;;;;15.47;11.17;;;4.80;99.90;;;;;;5030264;28;21017;-70
2020/12/12 05:53:56;;;;;;;17.83;11.40;;;4.90;99.90;;;;;;5030976;28;20461;-69
2020/12/12 05:56:23;;;;;;;13.50;11.17;;;4.90;99.90;;;;;;5030908;28;20449;-69
2020/12/12 05:58:51;;;;;;;19.10;11.97;;;4.90;99.90;;;;;;5030861;28;20455;-70
2020/12/12 06:01:19;;;;;;;18.70;11.77;;;4.90;99.90;;;;;;5030415;28;20851;-70
2020/12/12 06:03:54;;;;;;;15.87;10.30;;;4.90;99.90;;;;;;5030922;28;20479;-70
2020/12/12 06:06:23;;;;;;;14.03;10.40;;;4.90;99.90;;;;;;5030892;28;20440;-71
2020/12/12 06:09:05;;;;;;;12.00;9.90;;;4.90;99.90;;;;;;5030930;28;20445;-71
2020/12/12 06:11:32;;;;;;;14.60;11.50;;;5.00;99.90;;;;;;5029879;28;21035;-71
2020/12/12 06:14:01;;;;;;;12.90;10.00;;;5.00;99.90;;;;;;5030692;28;20499;-70
2020/12/12 06:16:29;;;;;;;12.97;10.33;;;5.00;99.90;;;;;;5030415;28;20463;-70
2020/12/12 06:19:16;;;;;;;13.40;10.63;;;5.00;99.90;;;;;;5030815;28;20527;-70
2020/12/12 06:21:45;;;;;;;11.07;9.70;;;5.00;99.90;;;;;;5023420;28;20491;-71
2020/12/12 06:24:13;;;;;;;9.93;8.50;;;5.10;99.90;;;;;;5030720;28;20527;-71
2020/12/12 06:26:53;;;;;;;12.97;9.73;;;5.00;99.90;;;;;;5030871;28;20540;-70
2020/12/12 06:29:20;;;;;;;14.73;9.63;;;5.10;99.90;;;;;;5030811;28;20484;-71
2020/12/12 06:31:47;;;;;;;13.27;9.87;;;5.10;99.90;;;;;;5029399;28;20521;-71
2020/12/12 06:34:13;;;;;;;12.10;9.43;;;5.10;99.90;;;;;;5030014;28;20448;-71
2020/12/12 06:36:47;;;;;;;11.43;8.60;;;5.10;99.90;;;;;;5030348;28;20531;-71
2020/12/12 06:39:26;;;;;;;11.87;9.50;;;5.10;99.90;;;;;;5030687;28;20527;-71
2020/12/12 06:41:54;;;;;;;12.10;9.10;;;5.10;99.90;;;;;;5029648;28;20481;-71
2020/12/12 06:44:33;;;;;;;13.23;9.60;;;5.10;99.90;;;;;;5030153;28;20565;-70
2020/12/12 06:47:01;;;;;;;12.93;10.90;;;5.10;99.90;;;;;;5029991;28;20868;-69
2020/12/12 06:49:28;;;;;;;15.83;11.60;;;5.10;99.90;;;;;;5029908;28;21254;-71
2020/12/12 06:51:55;;;;;;;17.77;14.00;;;5.10;99.90;;;;;;5029462;28;20443;-69
2020/12/12 06:54:22;;;;;;;16.40;12.73;;;5.10;99.90;;;;;;5030121;28;20472;-71
2020/12/12 06:56:48;;;;;;;15.20;11.97;;;5.10;99.90;;;;;;5030308;28;21239;-70
2020/12/12 06:59:29;;;;;;;12.83;11.20;;;5.00;99.90;;;;;;5029908;28;20441;-71
2020/12/12 07:01:57;;;;;;;13.90;11.27;;;5.00;99.90;;;;;;5029352;28;20576;-70
2020/12/12 07:04:27;;;;;;;14.30;10.17;;;5.10;99.90;;;;;;5029838;28;20456;-71
2020/12/12 07:07:07;;;;;;;12.60;10.13;;;5.10;99.90;;;;;;5030275;28;20547;-71
2020/12/12 07:09:34;;;;;;;13.73;11.33;;;5.10;99.90;;;;;;5029739;28;20457;-70
2020/12/12 07:12:00;;;;;;;13.20;10.43;;;5.10;99.90;;;;;;5029889;28;20923;-70
2020/12/12 07:14:27;;;;;;;15.77;11.50;;;5.10;99.90;;;;;;5029849;28;20540;-70
2020/12/12 07:16:55;;;;;;;13.13;9.47;;;5.10;99.90;;;;;;5029879;28;20464;-71
2020/12/12 07:19:35;;;;;;;13.50;11.00;;;5.10;99.90;;;;;;5030068;28;20472;-71
2020/12/12 07:22:04;;;;;;;14.80;11.00;;;5.10;99.90;;;;;;5029040;28;20576;-71
2020/12/12 07:24:31;;;;;;;12.33;9.90;;;5.10;99.90;;;;;;5029734;28;20449;-71
2020/12/12 07:26:58;;;;;;;15.13;11.43;;;5.20;99.90;;;;;;5029726;28;20580;-70
2020/12/12 07:29:25;;;;;;;14.00;10.57;;;5.20;99.90;;;;;;5029708;28;20445;-70
2020/12/12 07:31:51;;;;;;;13.00;10.00;;;5.20;99.90;;;;;;5028735;28;20436;-71
2020/12/12 07:34:19;;;;;;;13.37;10.53;;;5.20;99.90;;;;;;5029417;28;20867;-70
2020/12/12 07:36:45;;;;;;;12.50;9.40;;;5.30;99.90;;;;;;5029578;28;20549;-70
2020/12/12 07:39:13;;;;;;;13.60;10.00;;;5.30;99.90;;;;;;5029456;28;20437;-70
2020/12/12 07:41:46;;;;;;;12.47;9.23;;;5.20;99.90;;;;;;5028710;28;20489;-70
2020/12/12 07:44:13;;;;;;;10.00;8.67;;;5.30;99.90;;;;;;5028848;28;20473;-70
2020/12/12 07:46:52;;;;;;;12.53;9.00;;;5.40;99.90;;;;;;5029175;28;20544;-70
2020/12/12 07:49:19;;;;;;;10.33;8.83;;;5.40;99.90;;;;;;5029329;28;20510;-71
2020/12/12 07:51:46;;;;;;;12.17;9.67;;;5.40;99.90;;;;;;5028341;28;20576;-70
2020/12/12 07:54:16;;;;;;;11.70;9.03;;;5.50;99.90;;;;;;5029282;28;20534;-70
2020/12/12 07:56:50;;;;;;;12.20;9.17;;;5.50;99.90;;;;;;5028977;28;21088;-70
2020/12/12 07:59:19;;;;;;;13.20;9.10;;;5.50;99.90;;;;;;5029078;28;20468;-70
2020/12/12 08:01:47;;;;;;;11.30;9.10;;;5.50;99.90;;;;;;5028620;28;20480;-71
2020/12/12 08:04:18;;;;;;;11.30;7.90;;;5.60;99.90;;;;;;5029608;28;20448;-70
2020/12/12 08:06:45;;;;;;;13.70;9.93;;;5.60;99.90;;;;;;5033481;28;20867;-71
2020/12/12 08:09:11;;;;;;;10.33;8.73;;;5.60;99.90;;;;;;5029150;28;20455;-71
2020/12/12 08:11:40;;;;;;;13.53;10.03;;;5.70;99.90;;;;;;5028422;28;20551;-71
2020/12/12 08:14:06;;;;;;;12.07;9.37;;;5.80;99.90;;;;;;5028376;28;20447;-72
2020/12/12 08:16:39;;;;;;;11.67;8.93;;;5.80;99.90;;;;;;5026582;28;20496;-70
2020/12/12 08:19:06;;;;;;;10.67;8.70;;;5.80;99.90;;;;;;5036637;28;20875;-70
2020/12/12 08:21:32;;;;;;;11.67;9.00;;;5.90;99.90;;;;;;5035642;28;20480;-70
2020/12/12 08:24:00;;;;;;;11.47;8.97;;;5.90;99.90;;;;;;5028140;28;20548;-69
2020/12/12 08:26:27;;;;;;;11.70;9.33;;;5.90;99.90;;;;;;5028626;28;20809;-71
2020/12/12 08:28:59;;;;;;;12.40;9.30;;;6.00;99.90;;;;;;5036216;28;20452;-73
2020/12/12 08:31:26;;;;;;;12.10;8.37;;;6.00;99.90;;;;;;5034577;28;20497;-72
2020/12/12 08:33:55;;;;;;;11.83;8.93;;;6.00;99.90;;;;;;5048723;28;20547;-75
2020/12/12 08:36:24;;;;;;;10.90;9.43;;;6.00;99.90;;;;;;5048657;28;20448;-71
2020/12/12 08:38:52;;;;;;;10.40;9.07;;;6.10;99.90;;;;;;5048938;28;20517;-73
2020/12/12 08:41:19;;;;;;;9.83;8.20;;;6.10;99.90;;;;;;5048064;28;20483;-72
2020/12/12 08:43:46;;;;;;;10.33;8.53;;;6.10;99.90;;;;;;5048743;28;20555;-72
2020/12/12 08:46:17;;;;;;;11.27;9.43;;;6.10;99.90;;;;;;5048319;28;20452;-71
2020/12/12 08:48:44;;;;;;;12.50;10.37;;;6.10;99.90;;;;;;5048348;28;20824;-71
2020/12/12 08:51:11;;;;;;;11.07;8.97;;;6.20;99.90;;;;;;5042876;28;20544;-71
2020/12/12 08:53:39;;;;;;;11.13;9.23;;;6.20;99.90;;;;;;5038941;28;20502;-71
2020/12/12 08:56:08;;;;;;;13.83;9.50;;;6.20;99.90;;;;;;5039139;28;20516;-71
2020/12/12 08:58:40;;;;;;;11.33;9.40;;;6.20;99.90;;;;;;5033660;28;20436;-72
2020/12/12 09:01:31;;;;;;;11.30;9.70;;;6.20;99.90;;;;;;5028783;28;20524;-71
2020/12/12 09:04:20;;;;;;;12.10;9.23;;;6.20;99.90;;;;;;5024111;28;20450;-71
2020/12/12 09:06:54;;;;;;;10.23;7.97;;;6.30;99.90;;;;;;5032767;28;20469;-72
2020/12/12 09:09:22;;;;;;;11.20;8.60;;;6.30;99.90;;;;;;5033167;28;20469;-71
2020/12/12 09:11:54;;;;;;;10.13;7.40;;;6.30;99.90;;;;;;5024760;28;20549;-71
2020/12/12 09:14:21;;;;;;;8.70;7.50;;;6.40;99.90;;;;;;5034432;28;20957;-71
2020/12/12 09:16:50;;;;;;;9.87;7.30;;;6.50;99.90;;;;;;5033713;28;20552;-71
2020/12/12 09:19:17;;;;;;;10.73;7.43;;;6.50;99.90;;;;;;5043121;28;20464;-71
2020/12/12 09:21:43;;;;;;;10.93;8.37;;;6.60;99.90;;;;;;5033866;28;20485;-70
2020/12/12 09:24:10;;;;;;;8.83;7.40;;;6.60;99.90;;;;;;5030525;28;20451;-71
2020/12/12 09:26:36;;;;;;;8.77;6.97;;;6.70;99.90;;;;;;5041541;28;20479;-71
2020/12/12 09:29:03;;;;;;;9.40;7.00;;;6.70;99.90;;;;;;5040058;28;20543;-72
2020/12/12 09:31:30;;;;;;;10.00;6.70;;;6.80;99.90;;;;;;5034301;28;20579;-70
2020/12/12 09:33:57;;;;;;;8.43;6.50;;;6.90;99.90;;;;;;5036422;28;20472;-71
2020/12/12 09:36:24;;;;;;;9.40;6.57;;;7.00;99.90;;;;;;5035592;28;20439;-70
2020/12/12 09:38:50;;;;;;;7.70;6.50;;;7.10;99.90;;;;;;5045812;28;20539;-70
2020/12/12 09:41:17;;;;;;;8.53;7.63;;;7.20;99.90;;;;;;5031405;28;20446;-70
2020/12/12 09:43:44;;;;;;;8.90;6.37;;;7.20;99.90;;;;;;5041614;28;20570;-71
2020/12/12 09:46:10;;;;;;;7.20;5.80;;;7.30;99.90;;;;;;5039241;28;20440;-70
2020/12/12 09:48:37;;;;;;;6.40;5.80;;;7.40;99.90;;;;;;5036004;28;20881;-70
2020/12/12 09:51:05;;;;;;;8.47;5.70;;;7.50;99.90;;;;;;5041839;28;20495;-70
2020/12/12 09:53:32;;;;;;;6.10;5.23;;;7.50;99.90;;;;;;5034360;28;20472;-70
2020/12/12 09:55:58;;;;;;;8.17;5.60;;;7.50;99.90;;;;;;5035557;28;20448;-76
2020/12/12 09:58:25;;;;;;;6.03;4.90;;;7.40;99.90;;;;;;5031285;28;20457;-69
2020/12/12 10:00:52;;;;;;;7.40;6.13;;;7.40;99.90;;;;;;5040356;28;20598;-71
2020/12/12 10:03:19;;;;;;;5.10;4.03;;;7.40;99.90;;;;;;5042708;28;20540;-73
2020/12/12 10:05:45;;;;;;;5.90;4.90;;;7.50;99.90;;;;;;5042798;28;20443;-71
2020/12/12 10:08:13;;;;;;;9.07;5.20;;;7.60;99.90;;;;;;5051741;28;20696;-70
2020/12/12 10:10:39;;;;;;;6.90;5.10;;;7.60;99.90;;;;;;5044045;28;20531;-70
2020/12/12 10:13:06;;;;;;;7.40;5.40;;;7.60;99.90;;;;;;5039046;28;20488;-70
2020/12/12 10:15:32;;;;;;;7.13;5.33;;;7.50;99.90;;;;;;5038874;28;20520;-71
2020/12/12 10:17:59;;;;;;;5.50;4.90;;;7.60;99.90;;;;;;5030765;28;20457;-69
2020/12/12 10:20:25;;;;;;;6.17;5.50;;;7.60;99.90;;;;;;5030184;28;20439;-70
2020/12/12 10:22:52;;;;;;;6.50;5.20;;;7.70;99.90;;;;;;5030557;28;20915;-69
2020/12/12 10:25:19;;;;;;;5.70;4.13;;;7.70;99.90;;;;;;5030761;28;20460;-70
2020/12/12 10:27:46;;;;;;;5.90;4.50;;;7.70;99.90;;;;;;5030777;28;20457;-70
2020/12/12 10:30:15;;;;;;;7.10;5.13;;;7.80;99.90;;;;;;5030071;28;20567;-68
2020/12/12 10:32:41;;;;;;;5.43;4.50;;;7.80;99.90;;;;;;5030824;28;20457;-69
2020/12/12 10:35:11;;;;;;;5.80;4.90;;;7.70;99.90;;;;;;5030629;28;20448;-70
2020/12/12 10:37:38;;;;;;;5.13;4.57;;;7.80;99.90;;;;;;5030396;28;20452;-71
2020/12/12 10:40:12;;;;;;;5.70;4.53;;;7.70;99.90;;;;;;5037653;28;20532;-70
2020/12/12 10:42:40;;;;;;;7.10;4.97;;;7.70;99.90;;;;;;5046557;28;20518;-70
2020/12/12 10:45:07;;;;;;;6.60;4.70;;;7.80;99.90;;;;;;5049864;28;20454;-70
2020/12/12 10:47:33;;;;;;;5.17;3.87;;;7.80;99.90;;;;;;5049859;28;21078;-69
2020/12/12 10:50:00;;;;;;;4.67;4.10;;;8.00;99.90;;;;;;5049379;28;20531;-70
2020/12/12 10:52:26;;;;;;;7.77;4.30;;;8.10;99.90;;;;;;5049616;28;20555;-70
2020/12/12 10:54:53;;;;;;;5.70;4.20;;;8.10;99.90;;;;;;5050024;28;20582;-71
2020/12/12 10:57:19;;;;;;;5.60;4.03;;;8.20;99.90;;;;;;5049586;28;20440;-70
2020/12/12 10:59:46;;;;;;;6.23;4.53;;;8.40;99.90;;;;;;5050116;28;20483;-72
2020/12/12 11:02:13;;;;;;;5.50;4.60;;;8.50;99.90;;;;;;5040812;28;20538;-71
2020/12/12 11:04:40;;;;;;;5.10;3.80;;;8.70;99.90;;;;;;5041077;28;21018;-70
2020/12/12 11:07:07;;;;;;;5.47;3.93;;;8.70;99.90;;;;;;5033970;28;20487;-70
2020/12/12 11:09:34;;;;;;;5.57;4.03;;;8.80;99.90;;;;;;5041083;28;20471;-72
2020/12/12 11:12:01;;;;;;;5.57;3.80;;;8.90;99.90;;;;;;5044187;28;20473;-71
2020/12/12 11:14:29;;;;;;;7.67;4.53;;;8.80;99.90;;;;;;5045015;28;20444;-70
2020/12/12 11:16:57;;;;;;;5.10;3.60;;;8.80;99.90;;;;;;5049295;28;20456;-70
2020/12/12 11:19:23;;;;;;;5.70;4.50;;;8.70;99.90;;;;;;5049030;28;20550;-69
2020/12/12 11:21:52;;;;;;;4.40;3.70;;;8.70;99.90;;;;;;5048562;28;20873;-71
2020/12/12 11:24:19;;;;;;;4.23;3.63;;;8.70;99.90;;;;;;5049211;28;20982;-71
2020/12/12 11:26:46;;;;;;;6.20;5.07;;;8.60;99.90;;;;;;5049432;28;20539;-71
2020/12/12 11:29:14;;;;;;;6.70;5.33;;;8.60;99.90;;;;;;5045842;28;20528;-69
2020/12/12 11:31:42;;;;;;;5.33;4.20;;;8.60;99.90;;;;;;5039959;28;20977;-70
2020/12/12 11:34:14;;;;;;;4.23;3.43;;;8.60;99.90;;;;;;5048867;28;20509;-70
2020/12/12 11:37:06;;;;;;;5.17;3.93;;;8.60;99.90;;;;;;5048755;28;20947;-70
2020/12/12 11:39:38;;;;;;;5.10;4.20;;;8.60;99.90;;;;;;5043087;28;20496;-70
2020/12/12 11:47:35;;;;;;;5.30;4.10;;;8.80;99.90;;;;;;5025938;28;20440;-70
2020/12/12 11:50:05;;;;;;;5.10;3.83;;;8.90;99.90;;;;;;5030940;28;20445;-70
2020/12/12 11:52:36;;;;;;;7.20;4.30;;;8.90;99.90;;;;;;5025951;28;21141;-70
2020/12/12 11:55:03;;;;;;;4.37;3.97;;;9.00;99.90;;;;;;5015228;28;20441;-71
2020/12/12 11:57:31;;;;;;;6.10;4.70;;;8.90;99.90;;;;;;5026246;28;20481;-72
2020/12/12 12:00:01;;;;;;;4.13;3.67;;;9.00;99.90;;;;;;5029002;28;21093;-70
2020/12/12 12:02:28;;;;;;;3.90;3.50;;;9.00;99.90;;;;;;5025671;28;20489;-73
2020/12/12 12:04:54;;;;;;;3.73;3.33;;;8.90;99.90;;;;;;5023406;28;20453;-71
2020/12/12 12:07:21;;;;;;;3.57;3.27;;;8.90;99.90;;;;;;5026087;28;20959;-73
2020/12/12 12:09:51;;;;;;;7.50;4.53;;;8.90;99.90;;;;;;5022779;28;20998;-71
2020/12/12 12:12:17;;;;;;;7.60;4.90;;;8.90;99.90;;;;;;5039075;28;20460;-72
2020/12/12 12:14:44;;;;;;;5.93;5.33;;;9.00;99.90;;;;;;5036845;28;20531;-73
2020/12/12 12:17:10;;;;;;;8.30;5.10;;;9.10;99.90;;;;;;5033026;28;20460;-74
2020/12/12 12:19:37;;;;;;;5.87;5.27;;;9.10;99.90;;;;;;5041904;28;20539;-72
2020/12/12 12:22:03;;;;;;;5.80;4.20;;;9.20;99.90;;;;;;5047443;28;20498;-73
2020/12/12 12:24:30;;;;;;;6.10;4.10;;;9.30;99.90;;;;;;5048434;28;20479;-73
2020/12/12 12:26:57;;;;;;;5.33;4.30;;;9.40;99.90;;;;;;5041307;28;20527;-72
2020/12/12 12:29:23;;;;;;;5.00;4.30;;;9.40;99.90;;;;;;5040820;28;20881;-72
2020/12/12 12:31:53;;;;;;;5.33;3.57;;;9.30;99.90;;;;;;5042125;28;20464;-71
2020/12/12 12:34:19;;;;;;;5.23;4.60;;;9.20;99.90;;;;;;5009676;28;20482;-72
2020/12/12 12:36:46;;;;;;;5.40;4.47;;;9.30;99.90;;;;;;5012398;28;20536;-71
2020/12/12 12:39:13;;;;;;;6.70;5.10;;;9.30;99.90;;;;;;5012086;28;20452;-73
2020/12/12 12:41:41;;;;;;;6.10;4.97;;;9.30;99.90;;;;;;5033543;28;20543;-71
2020/12/12 12:44:08;;;;;;;6.40;4.80;;;9.20;99.90;;;;;;5033881;28;20494;-72
2020/12/12 12:46:36;;;;;;;5.27;4.23;;;9.20;99.90;;;;;;5037833;28;20445;-71
2020/12/12 12:49:03;;;;;;;4.37;3.90;;;9.20;99.90;;;;;;5033076;28;20998;-72
2020/12/12 12:51:30;;;;;;;4.23;3.83;;;9.20;99.90;;;;;;5038058;28;20479;-73